createdAt,value
2022-07-25T00:04:44.131Z,4.97
2022-07-25T00:09:46.822Z,4.37
2022-07-25T00:14:49.440Z,4.73
2022-07-25T00:19:52.169Z,4.23
2022-07-25T00:24:54.631Z,4.60
2022-07-25T00:29:57.302Z,4.57
2022-07-25T00:34:59.761Z,4.50
2022-07-25T00:40:02.487Z,4.20
2022-07-25T00:45:05.857Z,4.47
2022-07-25T00:50:08.774Z,4.57
2022-07-25T00:55:12.131Z,4.90
2022-07-25T01:00:15.745Z,5.07
2022-07-25T01:05:18.376Z,4.50
2022-07-25T01:10:20.889Z,4.73
2022-07-25T01:15:24.594Z,4.73
2022-07-25T01:20:28.937Z,5.10
2022-07-25T01:25:31.512Z,4.43
2022-07-25T01:30:34.082Z,4.90
2022-07-25T01:35:41.513Z,4.57
2022-07-25T01:40:47.006Z,4.87
2022-07-25T01:45:49.599Z,4.70
2022-07-25T01:50:52.231Z,4.47
2022-07-25T01:55:54.973Z,4.87
2022-07-25T02:01:00.318Z,5.03
2022-07-25T02:06:06.110Z,4.80
2022-07-25T02:11:08.834Z,4.77
2022-07-25T02:16:11.905Z,4.83
2022-07-25T02:21:14.826Z,4.60
2022-07-25T02:26:17.573Z,5.20
2022-07-25T02:31:20.089Z,5.20
2022-07-25T02:36:22.861Z,5.23
2022-07-25T02:41:25.436Z,5.13
2022-07-25T02:46:27.916Z,5.00
2022-07-25T02:51:30.511Z,5.03
2022-07-25T02:56:33.295Z,4.80
2022-07-25T03:01:36.111Z,5.23
2022-07-25T03:06:38.960Z,5.57
2022-07-25T03:11:41.434Z,5.90
2022-07-25T03:16:43.866Z,4.73
2022-07-25T03:21:46.603Z,5.33
2022-07-25T03:26:49.142Z,5.73
2022-07-25T03:31:51.651Z,4.77
2022-07-25T03:36:54.066Z,5.53
2022-07-25T03:41:56.774Z,5.10
2022-07-25T03:46:59.326Z,5.60
2022-07-25T03:52:01.950Z,5.13
2022-07-25T03:57:05.461Z,5.10
2022-07-25T04:02:08.128Z,5.53
2022-07-25T04:07:10.672Z,5.80
2022-07-25T04:12:13.281Z,5.90
2022-07-25T04:17:15.819Z,5.73
2022-07-25T04:22:18.538Z,5.40
2022-07-25T04:27:20.925Z,5.37
2022-07-25T04:32:23.805Z,5.20
2022-07-25T04:37:26.601Z,4.90
2022-07-25T04:42:29.381Z,5.30
2022-07-25T04:47:32.369Z,5.57
2022-07-25T04:52:35.066Z,5.57
2022-07-25T04:57:38.178Z,5.47
2022-07-25T05:02:40.929Z,4.83
2022-07-25T05:07:43.433Z,4.70
2022-07-25T05:12:46.175Z,4.70
2022-07-25T05:17:48.753Z,5.23
2022-07-25T05:22:51.789Z,5.03
2022-07-25T05:27:55.839Z,5.53
2022-07-25T05:32:58.421Z,5.10
2022-07-25T05:38:00.961Z,5.37
2022-07-25T05:43:03.859Z,5.10
2022-07-25T05:48:06.709Z,5.13
2022-07-25T05:53:09.337Z,5.00
2022-07-25T05:58:11.722Z,5.00
2022-07-25T06:03:14.281Z,5.10
2022-07-25T06:08:17.284Z,4.90
2022-07-25T06:13:20.858Z,4.80
2022-07-25T06:18:24.438Z,5.13
2022-07-25T06:23:27.727Z,5.23
2022-07-25T06:28:30.770Z,5.63
2022-07-25T06:33:33.180Z,5.20
2022-07-25T06:38:35.560Z,5.63
2022-07-25T06:43:38.194Z,6.27
2022-07-25T06:48:40.949Z,5.30
2022-07-25T06:53:43.795Z,4.63
2022-07-25T06:58:46.719Z,5.63
2022-07-25T07:03:49.334Z,5.97
2022-07-25T07:08:51.811Z,5.40
2022-07-25T07:13:54.628Z,5.50
2022-07-25T07:18:57.736Z,5.07
2022-07-25T07:24:00.501Z,5.90
2022-07-25T07:29:04.172Z,5.73
2022-07-25T07:34:07.395Z,5.57
2022-07-25T07:39:09.995Z,5.83
2022-07-25T07:44:12.777Z,6.00
2022-07-25T07:49:15.707Z,5.30
2022-07-25T07:54:36.831Z,5.83
2022-07-25T07:59:39.356Z,5.30
2022-07-25T08:04:41.773Z,5.73
2022-07-25T08:09:44.453Z,5.73
2022-07-25T08:14:46.982Z,5.43
2022-07-25T08:19:49.374Z,5.67
2022-07-25T08:24:51.829Z,7.73
2022-07-25T08:29:54.240Z,6.67
2022-07-25T08:34:57.367Z,5.33
2022-07-25T08:39:59.814Z,5.70
2022-07-25T08:45:05.992Z,5.23
2022-07-25T08:50:13.444Z,5.17
2022-07-25T08:55:20.108Z,5.27
2022-07-25T09:00:26.419Z,4.70
2022-07-25T09:05:31.882Z,5.67
2022-07-25T09:10:35.981Z,4.40
2022-07-25T09:15:41.388Z,4.90
2022-07-25T09:20:46.962Z,4.23
2022-07-25T09:25:49.580Z,6.70
2022-07-25T09:30:56.967Z,3.77
2022-07-25T09:35:59.437Z,3.47
2022-07-25T09:41:03.153Z,3.07
2022-07-25T09:46:07.107Z,3.30
2022-07-25T09:51:09.738Z,3.27
2022-07-25T09:56:12.180Z,3.37
2022-07-25T10:01:22.523Z,4.43
2022-07-25T10:06:28.605Z,2.90
2022-07-25T10:11:31.848Z,2.80
2022-07-25T10:16:48.436Z,2.63
2022-07-25T10:21:57.282Z,2.40
2022-07-25T10:27:08.758Z,2.77
2022-07-25T10:32:12.731Z,4.30
2022-07-25T10:37:18.113Z,3.97
2022-07-25T10:42:25.263Z,2.57
2022-07-25T10:47:28.475Z,3.35
2022-07-25T10:52:31.878Z,2.47
2022-07-25T10:57:34.539Z,2.70
2022-07-25T11:02:37.425Z,3.63
2022-07-25T11:08:20.265Z,2.80
2022-07-25T11:13:19.021Z,2.47
2022-07-25T11:18:34.792Z,4.03
2022-07-25T11:23:37.318Z,2.95
2022-07-25T11:28:44.165Z,3.17
2022-07-25T11:33:49.704Z,4.88
2022-07-25T11:38:52.277Z,3.10
2022-07-25T11:43:55.095Z,4.22
2022-07-25T11:49:05.945Z,4.70
2022-07-25T11:54:11.239Z,3.05
2022-07-25T11:59:14.131Z,3.63
2022-07-25T12:04:18.842Z,2.92
2022-07-25T12:09:22.445Z,3.55
2022-07-25T12:14:24.842Z,4.35
2022-07-25T12:19:27.257Z,2.05
2022-07-25T12:24:29.676Z,2.38
2022-07-25T12:29:32.161Z,1.60
2022-07-25T12:34:34.812Z,2.85
2022-07-25T12:39:37.279Z,2.50
2022-07-25T12:44:40.094Z,2.78
2022-07-25T12:49:42.575Z,3.33
2022-07-25T12:54:45.353Z,1.60
2022-07-25T12:59:47.871Z,2.40
2022-07-25T13:04:50.334Z,2.80
2022-07-25T13:09:53.048Z,2.58
2022-07-25T13:14:55.828Z,3.05
2022-07-25T13:19:58.378Z,2.65
2022-07-25T13:25:00.929Z,2.35
2022-07-25T13:30:04.169Z,4.00
2022-07-25T13:35:06.967Z,2.92
2022-07-25T13:40:10.168Z,3.90
2022-07-25T13:45:12.627Z,2.08
2022-07-25T13:50:15.118Z,2.20
2022-07-25T13:55:19.432Z,2.03
2022-07-25T14:00:22.413Z,2.42
2022-07-25T14:05:25.148Z,2.58
2022-07-25T14:10:27.911Z,4.55
2022-07-25T14:15:30.868Z,3.83
2022-07-25T14:20:33.299Z,4.18
2022-07-25T14:25:36.143Z,4.55
2022-07-25T14:30:38.808Z,2.85
2022-07-25T14:35:41.266Z,6.30
2022-07-25T14:40:44.085Z,5.55
2022-07-25T14:45:46.540Z,3.42
2022-07-25T14:50:49.047Z,4.07
2022-07-25T14:55:51.505Z,5.20
2022-07-25T15:00:54.519Z,2.17
2022-07-25T15:05:57.616Z,2.88
2022-07-25T15:11:00.157Z,3.08
2022-07-25T15:16:05.049Z,4.47
2022-07-25T15:21:07.525Z,5.35
2022-07-25T15:26:12.690Z,2.75
2022-07-25T15:31:15.144Z,2.45
2022-07-25T15:36:19.656Z,3.78
2022-07-25T15:41:22.283Z,2.53
2022-07-25T15:46:24.742Z,2.85
2022-07-25T15:51:27.305Z,4.38
2022-07-25T15:56:29.792Z,3.43
2022-07-25T16:01:32.291Z,3.37
2022-07-25T16:06:35.006Z,3.60
2022-07-25T16:11:38.843Z,3.63
2022-07-25T16:16:41.411Z,3.07
2022-07-25T16:21:44.348Z,5.03
2022-07-25T16:26:48.151Z,4.30
2022-07-25T16:31:52.025Z,4.37
2022-07-25T16:36:57.488Z,3.67
2022-07-25T16:42:00.000Z,2.97
2022-07-25T16:47:03.512Z,2.33
2022-07-25T16:52:06.301Z,3.77
2022-07-25T16:57:09.132Z,4.03
2022-07-25T17:02:11.628Z,3.43
2022-07-25T17:07:14.926Z,3.97
2022-07-25T17:12:18.799Z,3.77
2022-07-25T17:17:21.391Z,4.00
2022-07-25T17:22:23.854Z,4.47
2022-07-25T17:27:26.755Z,4.30
2022-07-25T17:32:30.413Z,3.30
2022-07-25T17:37:33.241Z,2.43
2022-07-25T17:42:35.845Z,3.80
2022-07-25T17:47:38.609Z,3.27
2022-07-25T17:52:41.232Z,4.00
2022-07-25T17:57:44.053Z,3.83
2022-07-25T18:02:46.603Z,3.67
2022-07-25T18:07:52.416Z,2.23
2022-07-25T18:12:55.269Z,3.87
2022-07-25T18:17:58.414Z,2.77
2022-07-25T18:23:05.719Z,3.97
2022-07-25T18:28:08.866Z,3.90
2022-07-25T18:33:12.223Z,3.53
2022-07-25T18:38:14.674Z,2.40
2022-07-25T18:43:17.445Z,2.30
2022-07-25T18:48:21.707Z,2.53
2022-07-25T18:53:26.238Z,5.10
2022-07-25T18:58:29.730Z,2.07
2022-07-25T19:03:34.993Z,2.43
2022-07-25T19:08:38.103Z,3.90
2022-07-25T19:13:49.917Z,3.20
2022-07-25T19:18:53.230Z,2.00
2022-07-25T19:23:55.864Z,3.33
2022-07-25T19:28:58.835Z,4.10
2022-07-25T19:34:01.561Z,2.23
2022-07-25T19:39:05.977Z,1.57
2022-07-25T19:44:13.414Z,2.40
2022-07-25T19:49:16.257Z,4.57
2022-07-25T19:54:18.791Z,2.40
2022-07-25T19:59:21.452Z,2.97
2022-07-25T20:04:24.181Z,3.97
2022-07-25T20:09:26.763Z,2.00
2022-07-25T20:14:30.093Z,3.20
2022-07-25T20:19:32.512Z,2.07
2022-07-25T20:24:35.270Z,1.73
2022-07-25T20:29:38.088Z,1.90
2022-07-25T20:34:40.921Z,3.03
2022-07-25T20:39:43.350Z,3.63
2022-07-25T20:44:45.973Z,2.07
2022-07-25T20:49:48.814Z,2.20
2022-07-25T20:54:51.290Z,1.97
2022-07-25T20:59:53.908Z,2.13
2022-07-25T21:04:56.296Z,2.63
2022-07-25T21:09:59.126Z,2.20
2022-07-25T21:15:01.625Z,1.93
2022-07-25T21:20:05.429Z,1.60
2022-07-25T21:25:09.416Z,2.17
2022-07-25T21:30:12.958Z,2.27
2022-07-25T21:35:26.753Z,1.30
2022-07-25T21:40:29.372Z,2.03
2022-07-25T21:45:32.471Z,2.27
2022-07-25T21:50:39.778Z,2.93
2022-07-25T21:55:46.345Z,1.90
2022-07-25T22:00:51.907Z,3.73
2022-07-25T22:05:54.509Z,3.43
2022-07-25T22:10:57.805Z,2.87
2022-07-25T22:16:01.299Z,4.03
2022-07-25T22:21:03.891Z,2.67
2022-07-25T22:26:06.332Z,2.97
2022-07-25T22:31:08.973Z,3.23
2022-07-25T22:36:11.513Z,1.27
2022-07-25T22:41:13.993Z,3.03
2022-07-25T22:46:16.728Z,3.87
2022-07-25T22:51:19.252Z,2.40
2022-07-25T22:56:22.143Z,2.70
2022-07-25T23:01:25.036Z,2.17
2022-07-25T23:06:27.368Z,1.93
2022-07-25T23:11:29.766Z,3.33
2022-07-25T23:16:32.258Z,3.27
2022-07-25T23:21:35.026Z,2.03
2022-07-25T23:26:37.518Z,1.67
2022-07-25T23:31:40.247Z,4.47
2022-07-25T23:36:42.780Z,3.27
2022-07-25T23:41:45.351Z,1.77
2022-07-25T23:46:48.250Z,2.50
2022-07-25T23:51:51.388Z,3.20
2022-07-25T23:56:54.183Z,3.20
